createdAt,value
2022-11-29T00:01:23.888Z,17.13
2022-11-29T00:03:51.891Z,16.17
2022-11-29T00:06:21.488Z,18.42
2022-11-29T00:08:49.367Z,23.98
2022-11-29T00:11:40.200Z,12.40
2022-11-29T00:14:09.827Z,16.73
2022-11-29T00:16:36.906Z,11.25
2022-11-29T00:19:04.377Z,17.35
2022-11-29T00:21:31.367Z,14.55
2022-11-29T00:23:58.506Z,16.27
2022-11-29T00:26:25.586Z,17.55
2022-11-29T00:28:54.098Z,11.45
2022-11-29T00:31:32.016Z,16.13
2022-11-29T00:34:03.919Z,19.90
2022-11-29T00:36:31.230Z,19.30
2022-11-29T00:38:58.473Z,13.80
2022-11-29T00:41:25.614Z,19.08
2022-11-29T00:43:53.071Z,20.23
2022-11-29T00:46:20.196Z,12.23
2022-11-29T00:48:47.316Z,18.88
2022-11-29T00:51:14.462Z,14.45
2022-11-29T00:53:41.428Z,14.05
2022-11-29T00:56:08.791Z,21.95
2022-11-29T00:58:36.800Z,18.88
2022-11-29T01:01:04.315Z,18.95
2022-11-29T01:03:31.697Z,21.20
2022-11-29T01:06:08.883Z,20.80
2022-11-29T01:08:36.534Z,22.00
2022-11-29T01:11:12.512Z,16.15
2022-11-29T01:13:39.998Z,19.77
2022-11-29T01:16:07.454Z,18.60
2022-11-29T01:18:35.062Z,22.05
2022-11-29T01:21:06.520Z,22.52
2022-11-29T01:23:34.893Z,21.80
2022-11-29T01:26:09.117Z,26.48
2022-11-29T01:28:37.194Z,16.05
2022-11-29T01:31:08.931Z,22.55
2022-11-29T01:33:37.293Z,21.92
2022-11-29T01:36:05.722Z,28.02
2022-11-29T01:38:33.235Z,9.07
2022-11-29T01:41:28.529Z,13.00
2022-11-29T01:44:03.655Z,14.95
2022-11-29T01:46:39.481Z,10.23
2022-11-29T01:49:17.470Z,19.30
2022-11-29T01:52:19.348Z,14.38
2022-11-29T01:54:51.114Z,16.38
2022-11-29T01:57:20.340Z,14.40
2022-11-29T01:59:52.580Z,14.27
2022-11-29T02:02:31.199Z,15.82
2022-11-29T02:05:00.587Z,13.45
2022-11-29T02:07:27.693Z,13.13
2022-11-29T02:09:54.734Z,13.60
2022-11-29T02:12:27.533Z,13.05
2022-11-29T02:15:49.749Z,16.38
2022-11-29T02:18:33.269Z,16.30
2022-11-29T02:21:11.463Z,13.05
2022-11-29T02:24:03.822Z,19.25
2022-11-29T02:26:57.929Z,19.05
2022-11-29T02:29:55.986Z,15.95
2022-11-29T02:32:38.016Z,15.25
2022-11-29T02:35:10.918Z,16.45
2022-11-29T02:37:50.043Z,17.58
2022-11-29T02:40:25.865Z,14.05
2022-11-29T02:43:11.549Z,19.70
2022-11-29T02:46:03.233Z,19.52
2022-11-29T02:48:45.412Z,16.67
2022-11-29T02:51:23.356Z,14.20
2022-11-29T02:53:53.596Z,11.57
2022-11-29T02:58:55.917Z,11.02
2022-11-29T03:01:33.961Z,14.88
2022-11-29T03:04:20.552Z,12.27
2022-11-29T03:07:13.348Z,15.38
2022-11-29T03:10:32.699Z,17.98
2022-11-29T03:13:02.306Z,9.83
2022-11-29T03:15:33.590Z,19.70
2022-11-29T03:18:25.442Z,17.33
2022-11-29T03:20:52.469Z,17.20
2022-11-29T03:23:37.295Z,9.95
2022-11-29T03:26:24.791Z,17.20
2022-11-29T03:28:56.426Z,12.40
2022-11-29T03:31:35.662Z,13.90
2022-11-29T03:34:41.038Z,12.80
2022-11-29T03:37:49.410Z,14.68
2022-11-29T03:40:21.679Z,12.70
2022-11-29T03:42:56.558Z,17.00
2022-11-29T03:45:39.668Z,16.15
2022-11-29T03:48:22.071Z,14.73
2022-11-29T03:51:01.306Z,13.60
2022-11-29T03:53:34.326Z,13.47
2022-11-29T03:56:03.543Z,15.73
2022-11-29T03:58:33.316Z,15.90
2022-11-29T04:01:30.645Z,14.55
2022-11-29T04:04:03.465Z,12.63
2022-11-29T04:07:00.868Z,6.63
2022-11-29T04:09:30.815Z,13.75
2022-11-29T04:12:13.048Z,12.73
2022-11-29T04:14:52.199Z,10.70
2022-11-29T04:17:27.963Z,20.85
2022-11-29T04:20:10.691Z,16.15
2022-11-29T04:22:54.102Z,13.90
2022-11-29T04:25:39.729Z,13.85
2022-11-29T04:28:36.626Z,13.20
2022-11-29T04:31:24.759Z,9.10
2022-11-29T04:34:16.410Z,13.48
2022-11-29T04:37:18.677Z,16.55
2022-11-29T04:40:47.114Z,15.40
2022-11-29T04:43:13.997Z,17.65
2022-11-29T04:46:14.888Z,16.45
2022-11-29T04:49:07.397Z,12.07
2022-11-29T04:51:52.217Z,10.65
2022-11-29T04:54:49.414Z,17.67
2022-11-29T04:57:34.541Z,16.58
2022-11-29T05:00:07.411Z,12.13
2022-11-29T05:02:43.600Z,18.63
2022-11-29T05:05:31.685Z,14.73
2022-11-29T05:08:17.590Z,17.15
2022-11-29T05:11:26.264Z,21.25
2022-11-29T05:14:18.936Z,19.97
2022-11-29T05:17:09.707Z,17.38
2022-11-29T05:19:58.585Z,16.08
2022-11-29T05:22:47.638Z,24.70
2022-11-29T05:25:37.460Z,22.75
2022-11-29T05:28:16.761Z,19.67
2022-11-29T05:30:43.720Z,16.10
2022-11-29T05:33:28.919Z,24.30
2022-11-29T05:36:08.794Z,16.55
2022-11-29T05:39:01.338Z,25.33
2022-11-29T05:41:52.734Z,19.48
2022-11-29T05:44:41.516Z,15.40
2022-11-29T05:47:10.312Z,14.73
2022-11-29T05:49:50.200Z,23.95
2022-11-29T05:52:42.368Z,16.00
2022-11-29T05:55:51.907Z,16.48
2022-11-29T05:58:40.141Z,20.23
2022-11-29T06:01:22.891Z,22.92
2022-11-29T06:04:28.868Z,21.92
2022-11-29T06:07:04.591Z,24.80
2022-11-29T06:10:01.620Z,26.80
2022-11-29T06:12:37.529Z,23.70
2022-11-29T06:15:23.570Z,25.88
2022-11-29T06:17:55.317Z,27.92
2022-11-29T06:21:14.874Z,30.27
2022-11-29T06:23:59.899Z,22.55
2022-11-29T06:26:42.643Z,26.73
2022-11-29T06:29:41.954Z,20.80
2022-11-29T06:32:42.386Z,28.23
2022-11-29T06:35:33.033Z,18.15
2022-11-29T06:38:06.795Z,23.95
2022-11-29T06:40:34.034Z,14.52
2022-11-29T06:43:01.247Z,24.88
2022-11-29T06:45:28.637Z,27.83
2022-11-29T06:48:03.789Z,17.65
2022-11-29T06:50:45.480Z,25.08
2022-11-29T06:53:33.698Z,12.63
2022-11-29T06:56:21.207Z,21.42
2022-11-29T06:59:04.416Z,25.05
2022-11-29T07:01:37.632Z,23.35
2022-11-29T07:04:15.763Z,24.45
2022-11-29T07:06:43.177Z,26.05
2022-11-29T07:09:46.639Z,23.13
2022-11-29T07:12:14.380Z,15.40
2022-11-29T07:14:41.670Z,24.88
2022-11-29T07:17:20.602Z,25.80
2022-11-29T07:20:12.365Z,22.83
2022-11-29T07:23:03.367Z,24.88
2022-11-29T07:26:02.827Z,21.25
2022-11-29T07:28:48.583Z,21.02
2022-11-29T07:31:34.795Z,19.17
2022-11-29T07:34:22.288Z,17.45
2022-11-29T07:36:52.179Z,20.02
2022-11-29T07:39:30.680Z,17.48
2022-11-29T07:42:10.833Z,12.63
2022-11-29T07:47:05.058Z,19.88
2022-11-29T07:49:32.462Z,11.57
2022-11-29T07:51:59.505Z,11.63
2022-11-29T07:54:26.880Z,34.40
2022-11-29T07:56:53.982Z,16.20
2022-11-29T07:59:21.056Z,16.55
2022-11-29T08:01:48.681Z,18.90
2022-11-29T08:04:19.090Z,17.15
2022-11-29T08:06:46.133Z,17.98
2022-11-29T08:09:13.581Z,16.98
2022-11-29T08:11:40.689Z,14.23
2022-11-29T08:14:07.859Z,16.25
2022-11-29T08:16:34.869Z,19.77
2022-11-29T08:19:01.989Z,20.00
2022-11-29T08:21:28.901Z,18.40
2022-11-29T08:23:55.973Z,19.95
2022-11-29T08:26:26.885Z,17.67
2022-11-29T08:28:58.100Z,19.35
2022-11-29T08:31:26.433Z,20.83
2022-11-29T08:33:53.574Z,17.73
2022-11-29T08:36:21.078Z,16.38
2022-11-29T08:38:48.389Z,17.67
2022-11-29T08:41:17.477Z,19.42
2022-11-29T08:43:44.789Z,18.10
2022-11-29T08:46:18.035Z,19.90
2022-11-29T08:48:46.710Z,19.83
2022-11-29T08:51:14.190Z,19.13
2022-11-29T08:53:46.444Z,19.42
2022-11-29T08:59:06.152Z,17.10
2022-11-29T09:01:33.251Z,17.65
2022-11-29T09:04:00.204Z,19.52
2022-11-29T09:06:31.892Z,17.15
2022-11-29T09:09:00.525Z,18.08
2022-11-29T09:11:29.449Z,21.02
2022-11-29T09:13:59.931Z,19.98
2022-11-29T09:16:30.974Z,25.13
2022-11-29T09:18:58.068Z,25.88
2022-11-29T09:21:27.913Z,26.27
2022-11-29T09:23:59.344Z,23.85
2022-11-29T09:26:29.357Z,25.75
2022-11-29T09:28:58.425Z,20.38
2022-11-29T09:31:27.269Z,20.00
2022-11-29T09:33:55.079Z,30.17
2022-11-29T09:36:27.853Z,31.38
2022-11-29T09:38:55.702Z,21.55
2022-11-29T09:41:22.627Z,24.88
2022-11-29T09:44:17.117Z,32.47
2022-11-29T09:47:17.637Z,25.35
2022-11-29T09:49:56.801Z,27.67
2022-11-29T09:52:32.846Z,23.90
2022-11-29T09:55:10.416Z,18.02
2022-11-29T09:57:38.710Z,18.20
2022-11-29T10:00:14.456Z,22.58
2022-11-29T10:02:47.928Z,23.02
2022-11-29T10:05:28.603Z,18.52
2022-11-29T10:08:06.853Z,21.75
2022-11-29T10:10:41.734Z,20.58
2022-11-29T10:13:11.701Z,21.80
2022-11-29T10:15:44.582Z,24.80
2022-11-29T10:18:22.208Z,19.75
2022-11-29T10:20:51.915Z,24.05
2022-11-29T10:23:29.850Z,22.77
2022-11-29T10:25:58.191Z,26.55
2022-11-29T10:28:30.771Z,26.60
2022-11-29T10:31:14.360Z,26.20
2022-11-29T10:33:42.101Z,27.80
2022-11-29T10:36:35.296Z,28.55
2022-11-29T10:39:22.385Z,28.20
2022-11-29T10:42:04.008Z,26.13
2022-11-29T10:44:33.405Z,37.70
2022-11-29T10:47:09.443Z,22.95
2022-11-29T10:49:40.280Z,27.15
2022-11-29T10:52:19.609Z,27.48
2022-11-29T10:54:50.098Z,22.93
2022-11-29T10:57:22.357Z,29.58
2022-11-29T11:00:09.957Z,24.50
2022-11-29T11:02:38.097Z,36.78
2022-11-29T11:05:18.602Z,31.67
2022-11-29T11:07:47.580Z,29.15
2022-11-29T11:10:27.315Z,22.90
2022-11-29T11:13:08.204Z,32.00
2022-11-29T11:15:35.531Z,37.10
2022-11-29T11:18:05.691Z,33.20
2022-11-29T11:23:08.144Z,38.88
2022-11-29T11:25:39.725Z,41.38
2022-11-29T11:28:22.389Z,38.15
2022-11-29T11:31:05.770Z,38.42
2022-11-29T11:33:42.432Z,44.72
2022-11-29T11:36:21.282Z,38.92
2022-11-29T11:39:18.502Z,28.98
2022-11-29T11:42:05.410Z,36.80
2022-11-29T11:44:47.563Z,28.17
2022-11-29T11:47:24.464Z,18.92
2022-11-29T11:50:00.301Z,38.33
2022-11-29T11:52:33.797Z,43.50
2022-11-29T11:55:18.624Z,35.83
2022-11-29T11:57:45.796Z,38.13
2022-11-29T12:01:03.493Z,24.75
2022-11-29T12:04:11.733Z,26.25
2022-11-29T12:06:47.567Z,29.70
2022-11-29T12:09:35.170Z,27.92
2022-11-29T12:12:13.929Z,28.30
2022-11-29T12:14:59.655Z,31.40
2022-11-29T12:17:40.163Z,24.95
2022-11-29T12:20:29.515Z,34.90
2022-11-29T12:23:03.462Z,28.88
2022-11-29T12:25:46.432Z,31.83
2022-11-29T12:28:20.067Z,25.15
2022-11-29T12:31:33.754Z,23.52
2022-11-29T12:34:22.422Z,23.05
2022-11-29T12:37:22.427Z,28.95
2022-11-29T12:40:24.351Z,29.63
2022-11-29T12:43:18.924Z,27.45
2022-11-29T12:45:49.492Z,31.80
2022-11-29T12:48:29.851Z,33.20
2022-11-29T12:51:05.979Z,29.65
2022-11-29T12:53:38.694Z,27.33
2022-11-29T12:56:28.247Z,35.78
2022-11-29T12:59:14.098Z,28.52
2022-11-29T13:02:02.979Z,31.00
2022-11-29T13:04:39.748Z,29.25
2022-11-29T13:07:23.758Z,28.13
2022-11-29T13:09:57.206Z,28.65
2022-11-29T13:12:40.783Z,34.95
2022-11-29T13:15:17.064Z,28.52
2022-11-29T13:18:00.744Z,31.13
2022-11-29T13:20:58.027Z,28.52
2022-11-29T13:26:38.241Z,45.83
2022-11-29T13:29:07.818Z,33.30
2022-11-29T13:31:35.710Z,36.78
2022-11-29T13:34:15.517Z,27.27
2022-11-29T13:36:54.343Z,26.92
2022-11-29T13:39:39.582Z,36.90
2022-11-29T13:42:31.799Z,36.85
2022-11-29T13:45:07.657Z,40.47
2022-11-29T13:47:53.256Z,29.92
2022-11-29T13:50:40.748Z,43.78
2022-11-29T13:53:15.207Z,39.10
2022-11-29T13:56:15.323Z,48.15
2022-11-29T14:01:12.814Z,43.53
2022-11-29T14:03:43.329Z,42.78
2022-11-29T14:06:15.469Z,34.15
2022-11-29T14:09:24.048Z,47.85
2022-11-29T14:12:19.019Z,35.10
2022-11-29T14:15:03.305Z,18.95
2022-11-29T14:17:51.157Z,43.20
2022-11-29T14:20:24.983Z,36.85
2022-11-29T14:23:07.843Z,23.58
2022-11-29T14:25:52.941Z,41.28
2022-11-29T14:28:22.859Z,26.40
2022-11-29T14:30:54.738Z,30.42
2022-11-29T14:33:42.301Z,35.90
2022-11-29T14:36:15.390Z,27.55
2022-11-29T14:38:48.137Z,24.00
2022-11-29T14:41:34.450Z,33.30
2022-11-29T14:44:28.319Z,28.27
2022-11-29T14:47:02.736Z,37.35
2022-11-29T14:49:36.302Z,36.35
2022-11-29T14:52:16.155Z,36.38
2022-11-29T14:55:02.338Z,41.10
2022-11-29T14:57:57.870Z,31.55
2022-11-29T15:00:30.901Z,33.38
2022-11-29T15:03:09.090Z,38.40
2022-11-29T15:05:38.914Z,30.13
2022-11-29T15:08:09.728Z,39.40
2022-11-29T15:10:42.449Z,27.40
2022-11-29T15:13:13.844Z,27.92
2022-11-29T15:15:49.891Z,40.13
2022-11-29T15:18:30.400Z,23.50
2022-11-29T15:21:24.329Z,33.05
2022-11-29T15:23:59.927Z,37.30
2022-11-29T15:26:27.028Z,37.45
2022-11-29T15:28:54.301Z,44.03
2022-11-29T15:31:21.919Z,34.45
2022-11-29T15:33:50.736Z,42.80
2022-11-29T15:36:20.747Z,49.77
2022-11-29T15:38:50.448Z,49.22
2022-11-29T15:41:35.197Z,56.10
2022-11-29T15:44:19.766Z,34.65
2022-11-29T15:46:46.708Z,39.60
2022-11-29T15:49:34.584Z,33.22
2022-11-29T15:52:07.828Z,39.65
2022-11-29T15:54:42.100Z,41.20
2022-11-29T15:57:18.913Z,38.03
2022-11-29T15:59:53.139Z,40.35
2022-11-29T16:02:25.940Z,40.42
2022-11-29T16:04:57.266Z,54.83
2022-11-29T16:07:26.922Z,46.30
2022-11-29T16:09:59.184Z,38.75
2022-11-29T16:12:26.774Z,41.60
2022-11-29T16:15:01.454Z,26.85
2022-11-29T16:17:34.072Z,51.10
2022-11-29T16:20:26.940Z,53.38
2022-11-29T16:23:14.511Z,37.28
2022-11-29T16:26:15.734Z,50.33
2022-11-29T16:28:48.250Z,31.23
2022-11-29T16:31:24.134Z,42.03
2022-11-29T16:33:52.866Z,39.47
2022-11-29T16:36:26.998Z,35.92
2022-11-29T16:39:07.453Z,35.40
2022-11-29T16:41:37.932Z,32.28
2022-11-29T16:44:06.966Z,51.45
2022-11-29T16:46:40.676Z,33.38
2022-11-29T16:49:34.708Z,39.50
2022-11-29T16:52:04.277Z,46.80
2022-11-29T16:57:07.092Z,28.55
2022-11-29T16:59:35.491Z,36.45
2022-11-29T17:02:02.999Z,39.58
2022-11-29T17:04:30.077Z,48.08
2022-11-29T17:06:57.894Z,37.90
2022-11-29T17:09:33.281Z,31.13
2022-11-29T17:12:02.225Z,48.35
2022-11-29T17:14:30.017Z,49.80
2022-11-29T17:16:57.675Z,47.70
2022-11-29T17:19:28.980Z,45.90
2022-11-29T17:21:56.238Z,42.65
2022-11-29T17:24:24.176Z,55.70
2022-11-29T17:26:51.708Z,40.03
2022-11-29T17:29:19.134Z,44.20
2022-11-29T17:31:47.211Z,32.38
2022-11-29T17:34:14.257Z,37.05
2022-11-29T17:36:41.247Z,33.40
2022-11-29T17:39:08.843Z,33.55
2022-11-29T17:41:36.003Z,37.00
2022-11-29T17:44:03.312Z,29.95
2022-11-29T17:46:32.148Z,38.83
2022-11-29T17:49:01.459Z,48.45
2022-11-29T17:54:16.396Z,50.72
2022-11-29T17:56:43.412Z,37.70
2022-11-29T17:59:10.454Z,47.50
2022-11-29T18:01:37.744Z,43.85
2022-11-29T18:04:06.347Z,34.03
2022-11-29T18:06:40.716Z,44.90
2022-11-29T18:09:10.339Z,26.50
2022-11-29T18:11:47.687Z,41.00
2022-11-29T18:14:19.168Z,42.50
2022-11-29T18:16:46.608Z,36.92
2022-11-29T18:19:19.106Z,42.42
2022-11-29T18:21:46.795Z,48.05
2022-11-29T18:24:13.978Z,44.65
2022-11-29T18:26:41.868Z,57.20
2022-11-29T18:29:10.163Z,54.80
2022-11-29T18:31:39.972Z,46.70
2022-11-29T18:34:11.802Z,46.17
2022-11-29T18:36:45.282Z,56.63
2022-11-29T18:39:16.590Z,60.55
2022-11-29T18:41:47.088Z,31.13
2022-11-29T18:44:16.779Z,55.75
2022-11-29T18:46:45.431Z,30.42
2022-11-29T18:49:15.049Z,45.70
2022-11-29T18:51:45.041Z,45.47
2022-11-29T18:54:13.273Z,48.58
2022-11-29T18:56:40.982Z,48.47
2022-11-29T18:59:11.344Z,51.83
2022-11-29T19:01:43.400Z,53.08
2022-11-29T19:04:14.251Z,47.13
2022-11-29T19:06:42.663Z,52.15
2022-11-29T19:09:33.857Z,60.58
2022-11-29T19:12:04.079Z,39.08
2022-11-29T19:14:34.573Z,38.40
2022-11-29T19:17:02.350Z,38.25
2022-11-29T19:19:36.810Z,34.85
2022-11-29T19:22:06.635Z,39.50
2022-11-29T19:24:36.624Z,48.53
2022-11-29T19:27:04.865Z,42.38
2022-11-29T19:29:38.183Z,45.95
2022-11-29T19:32:08.581Z,41.85
2022-11-29T19:34:35.870Z,45.97
2022-11-29T19:37:03.097Z,38.75
2022-11-29T19:39:34.131Z,36.58
2022-11-29T19:42:01.219Z,42.22
2022-11-29T19:44:30.120Z,26.77
2022-11-29T19:46:59.298Z,28.10
2022-11-29T19:49:26.337Z,33.28
2022-11-29T19:51:53.797Z,38.92
2022-11-29T19:54:20.988Z,29.27
2022-11-29T19:56:48.151Z,25.52
2022-11-29T19:59:16.348Z,42.58
2022-11-29T20:01:43.841Z,36.00
2022-11-29T20:04:13.065Z,25.10
2022-11-29T20:06:40.484Z,31.23
2022-11-29T20:09:07.998Z,54.17
2022-11-29T20:11:35.468Z,39.65
2022-11-29T20:14:07.490Z,32.95
2022-11-29T20:16:35.470Z,32.45
2022-11-29T20:19:02.654Z,17.92
2022-11-29T20:21:32.509Z,28.23
2022-11-29T20:24:05.657Z,24.15
2022-11-29T20:26:35.309Z,41.75
2022-11-29T20:29:07.373Z,42.28
2022-11-29T20:31:36.255Z,31.67
2022-11-29T20:34:06.751Z,25.63
2022-11-29T20:36:43.078Z,36.88
2022-11-29T20:39:29.043Z,39.65
2022-11-29T20:41:56.056Z,31.85
2022-11-29T20:44:44.390Z,39.08
2022-11-29T20:47:23.225Z,40.30
2022-11-29T20:49:50.498Z,43.65
2022-11-29T20:52:49.345Z,38.15
2022-11-29T20:55:16.378Z,39.80
2022-11-29T20:57:48.865Z,35.83
2022-11-29T21:00:18.953Z,33.92
2022-11-29T21:02:46.278Z,46.38
2022-11-29T21:05:19.786Z,34.00
2022-11-29T21:07:46.938Z,40.38
2022-11-29T21:10:16.831Z,19.00
2022-11-29T21:12:47.581Z,38.58
2022-11-29T21:15:18.067Z,31.30
2022-11-29T21:17:45.937Z,39.17
2022-11-29T21:20:26.880Z,40.17
2022-11-29T21:23:22.495Z,41.83
2022-11-29T21:26:05.212Z,35.70
2022-11-29T21:28:47.075Z,41.85
2022-11-29T21:31:17.535Z,32.25
2022-11-29T21:33:48.051Z,48.92
2022-11-29T21:36:15.377Z,41.03
2022-11-29T21:38:43.015Z,29.98
2022-11-29T21:41:11.020Z,46.40
2022-11-29T21:44:05.574Z,49.35
2022-11-29T21:48:58.218Z,39.53
2022-11-29T21:51:25.244Z,32.85
2022-11-29T21:53:52.260Z,58.35
2022-11-29T21:56:22.021Z,48.33
2022-11-29T21:58:51.495Z,55.65
2022-11-29T22:01:20.416Z,51.97
2022-11-29T22:03:48.204Z,34.80
2022-11-29T22:06:20.611Z,31.63
2022-11-29T22:08:48.485Z,41.38
2022-11-29T22:14:14.038Z,44.33
2022-11-29T22:16:55.250Z,34.63
2022-11-29T22:19:33.792Z,42.35
2022-11-29T22:22:03.912Z,38.20
2022-11-29T22:24:36.481Z,40.10
2022-11-29T22:27:03.795Z,42.20
2022-11-29T22:29:30.804Z,41.92
2022-11-29T22:31:59.456Z,38.17
2022-11-29T22:34:27.674Z,33.60
2022-11-29T22:36:55.565Z,41.60
2022-11-29T22:39:24.074Z,46.17
2022-11-29T22:41:54.794Z,32.92
2022-11-29T22:44:23.657Z,32.72
2022-11-29T22:46:51.300Z,39.05
2022-11-29T22:49:18.329Z,29.10
2022-11-29T22:51:45.254Z,37.17
2022-11-29T22:54:15.551Z,40.42
2022-11-29T22:56:44.009Z,44.97
2022-11-29T22:59:11.049Z,40.38
2022-11-29T23:01:39.656Z,35.92
2022-11-29T23:04:10.931Z,39.58
2022-11-29T23:06:41.190Z,31.27
2022-11-29T23:09:12.225Z,31.38
2022-11-29T23:11:39.447Z,44.47
2022-11-29T23:14:06.529Z,30.10
2022-11-29T23:16:34.188Z,36.03
2022-11-29T23:19:02.704Z,36.57
2022-11-29T23:21:35.363Z,40.60
2022-11-29T23:24:03.219Z,37.55
2022-11-29T23:26:40.116Z,24.80
2022-11-29T23:29:12.776Z,39.97
2022-11-29T23:31:40.502Z,48.17
2022-11-29T23:34:07.832Z,50.50
2022-11-29T23:36:35.862Z,51.45
2022-11-29T23:39:07.215Z,33.47
2022-11-29T23:41:37.697Z,48.15
2022-11-29T23:44:05.540Z,35.28
2022-11-29T23:46:32.750Z,44.45
2022-11-29T23:48:59.778Z,31.83
2022-11-29T23:51:26.888Z,39.80
2022-11-29T23:53:55.694Z,37.08
2022-11-29T23:56:22.952Z,42.08
2022-11-29T23:58:50.222Z,39.78
